Amherst, Colorado
Current Conditions -  °F | °C
As of 8:35 AM on Thursday 30 Oct 2014 (Local Time) from KHEQ Reporting Station
Clear Clear  
Wind Chill: 42°   Ceiling: Unl
Heat Index: 46°   Visibility: 10mi
Dew Point: 30°   Wind: 9mph
Humidity: 53%   Direction: 310°NW
Pressure: 30.3"   Gusts: NA
Location:  40.68°N, 102.17°W
Report Text: KHEQ 301435Z AUTO 31008KT 10SM CLR 08/M01 A3030 RMK AO2
Loading
Personal Weather Stations






























Interactive Weather Map New forecast layout! Learn more

10-Day Weather Forecast

Advertisements
Track Severe Weather on mobile